sensor_id;sensor_type;location;lat;lon;timestamp;temperature;humidity
22173;DHT22;11252;50.596;17.648;2022-08-02T00:01:07;18.40;92.20
22173;DHT22;11252;50.596;17.648;2022-08-02T00:03:35;18.40;92.20
22173;DHT22;11252;50.596;17.648;2022-08-02T00:06:05;18.30;92.20
22173;DHT22;11252;50.596;17.648;2022-08-02T00:08:36;18.30;92.20
22173;DHT22;11252;50.596;17.648;2022-08-02T00:11:04;18.40;92.20
22173;DHT22;11252;50.596;17.648;2022-08-02T00:13:32;18.40;92.20
22173;DHT22;11252;50.596;17.648;2022-08-02T00:16:01;18.40;92.20
22173;DHT22;11252;50.596;17.648;2022-08-02T00:18:30;18.40;92.20
22173;DHT22;11252;50.596;17.648;2022-08-02T00:20:58;18.40;92.20
22173;DHT22;11252;50.596;17.648;2022-08-02T00:23:26;18.30;92.20
22173;DHT22;11252;50.596;17.648;2022-08-02T00:25:53;18.30;92.20
22173;DHT22;11252;50.596;17.648;2022-08-02T00:28:22;18.30;92.20
22173;DHT22;11252;50.596;17.648;2022-08-02T00:30:56;18.30;92.20
22173;DHT22;11252;50.596;17.648;2022-08-02T00:33:25;18.30;92.20
22173;DHT22;11252;50.596;17.648;2022-08-02T00:36:12;18.30;92.20
22173;DHT22;11252;50.596;17.648;2022-08-02T00:38:40;18.30;92.20
22173;DHT22;11252;50.596;17.648;2022-08-02T00:41:13;18.30;92.20
22173;DHT22;11252;50.596;17.648;2022-08-02T00:43:43;18.30;92.20
22173;DHT22;11252;50.596;17.648;2022-08-02T00:46:11;18.30;92.20
22173;DHT22;11252;50.596;17.648;2022-08-02T00:48:39;18.20;92.20
22173;DHT22;11252;50.596;17.648;2022-08-02T00:51:09;18.30;92.20
22173;DHT22;11252;50.596;17.648;2022-08-02T00:53:39;18.30;92.20
22173;DHT22;11252;50.596;17.648;2022-08-02T00:56:07;18.30;92.20
22173;DHT22;11252;50.596;17.648;2022-08-02T00:58:35;18.30;92.20
22173;DHT22;11252;50.596;17.648;2022-08-02T01:01:03;18.20;92.20
22173;DHT22;11252;50.596;17.648;2022-08-02T01:03:31;18.20;92.20
22173;DHT22;11252;50.596;17.648;2022-08-02T01:05:58;18.30;92.20
22173;DHT22;11252;50.596;17.648;2022-08-02T01:08:41;18.30;92.20
22173;DHT22;11252;50.596;17.648;2022-08-02T01:11:10;18.30;92.20
22173;DHT22;11252;50.596;17.648;2022-08-02T01:13:38;18.30;92.20
22173;DHT22;11252;50.596;17.648;2022-08-02T01:16:19;18.30;92.20
22173;DHT22;11252;50.596;17.648;2022-08-02T01:18:58;18.20;92.20
22173;DHT22;11252;50.596;17.648;2022-08-02T01:21:53;18.20;92.20
22173;DHT22;11252;50.596;17.648;2022-08-02T01:25:25;18.20;92.20
22173;DHT22;11252;50.596;17.648;2022-08-02T01:28:00;18.20;92.20
22173;DHT22;11252;50.596;17.648;2022-08-02T01:30:29;18.10;92.20
22173;DHT22;11252;50.596;17.648;2022-08-02T01:33:00;18.10;92.20
22173;DHT22;11252;50.596;17.648;2022-08-02T01:35:36;18.10;92.20
22173;DHT22;11252;50.596;17.648;2022-08-02T01:38:38;18.10;92.20
22173;DHT22;11252;50.596;17.648;2022-08-02T01:41:09;18.00;92.20
22173;DHT22;11252;50.596;17.648;2022-08-02T01:43:41;18.00;92.20
22173;DHT22;11252;50.596;17.648;2022-08-02T01:46:11;18.00;92.20
22173;DHT22;11252;50.596;17.648;2022-08-02T01:48:41;18.00;92.20
22173;DHT22;11252;50.596;17.648;2022-08-02T01:51:12;18.00;92.20
22173;DHT22;11252;50.596;17.648;2022-08-02T01:53:44;18.00;92.20
22173;DHT22;11252;50.596;17.648;2022-08-02T01:56:13;18.00;92.20
22173;DHT22;11252;50.596;17.648;2022-08-02T01:58:42;18.00;92.20
22173;DHT22;11252;50.596;17.648;2022-08-02T02:01:12;18.00;92.20
22173;DHT22;11252;50.596;17.648;2022-08-02T02:03:45;18.00;92.20
22173;DHT22;11252;50.596;17.648;2022-08-02T02:06:15;18.00;92.20
22173;DHT22;11252;50.596;17.648;2022-08-02T02:08:44;18.00;92.20
22173;DHT22;11252;50.596;17.648;2022-08-02T02:11:13;17.90;92.20
22173;DHT22;11252;50.596;17.648;2022-08-02T02:14:02;18.00;92.20
22173;DHT22;11252;50.596;17.648;2022-08-02T02:16:31;17.90;92.20
22173;DHT22;11252;50.596;17.648;2022-08-02T02:19:02;17.90;92.20
22173;DHT22;11252;50.596;17.648;2022-08-02T02:21:30;17.90;92.20
22173;DHT22;11252;50.596;17.648;2022-08-02T02:24:01;17.90;92.20
22173;DHT22;11252;50.596;17.648;2022-08-02T02:26:34;17.90;92.20
22173;DHT22;11252;50.596;17.648;2022-08-02T02:29:06;17.90;92.20
22173;DHT22;11252;50.596;17.648;2022-08-02T02:31:39;17.90;92.20
22173;DHT22;11252;50.596;17.648;2022-08-02T02:34:24;17.90;92.20
22173;DHT22;11252;50.596;17.648;2022-08-02T02:36:53;17.80;92.20
22173;DHT22;11252;50.596;17.648;2022-08-02T02:39:23;17.80;92.20
22173;DHT22;11252;50.596;17.648;2022-08-02T02:41:54;17.80;92.20
22173;DHT22;11252;50.596;17.648;2022-08-02T02:44:24;17.80;92.20
22173;DHT22;11252;50.596;17.648;2022-08-02T02:46:53;17.90;92.20
22173;DHT22;11252;50.596;17.648;2022-08-02T02:49:22;17.80;92.20
22173;DHT22;11252;50.596;17.648;2022-08-02T02:51:52;17.80;92.20
22173;DHT22;11252;50.596;17.648;2022-08-02T02:54:22;17.80;92.20
22173;DHT22;11252;50.596;17.648;2022-08-02T02:57:03;17.80;92.20
22173;DHT22;11252;50.596;17.648;2022-08-02T02:59:33;17.80;92.20
22173;DHT22;11252;50.596;17.648;2022-08-02T03:02:09;17.70;92.20
22173;DHT22;11252;50.596;17.648;2022-08-02T03:04:40;17.80;92.20
22173;DHT22;11252;50.596;17.648;2022-08-02T03:07:24;17.80;92.20
22173;DHT22;11252;50.596;17.648;2022-08-02T03:09:52;17.80;92.20
22173;DHT22;11252;50.596;17.648;2022-08-02T03:12:23;17.80;92.20
22173;DHT22;11252;50.596;17.648;2022-08-02T03:15:05;17.70;92.20
22173;DHT22;11252;50.596;17.648;2022-08-02T03:17:42;17.70;92.20
22173;DHT22;11252;50.596;17.648;2022-08-02T03:20:14;17.60;92.20
22173;DHT22;11252;50.596;17.648;2022-08-02T03:22:43;17.60;92.20
22173;DHT22;11252;50.596;17.648;2022-08-02T03:25:13;17.60;92.20
22173;DHT22;11252;50.596;17.648;2022-08-02T03:27:42;17.60;92.20
22173;DHT22;11252;50.596;17.648;2022-08-02T03:30:11;17.60;92.20
22173;DHT22;11252;50.596;17.648;2022-08-02T03:32:42;17.50;92.20
22173;DHT22;11252;50.596;17.648;2022-08-02T03:35:12;17.50;92.20
22173;DHT22;11252;50.596;17.648;2022-08-02T03:37:50;17.60;92.20
22173;DHT22;11252;50.596;17.648;2022-08-02T03:40:19;17.50;92.20
22173;DHT22;11252;50.596;17.648;2022-08-02T03:42:47;17.60;92.20
22173;DHT22;11252;50.596;17.648;2022-08-02T03:45:15;17.50;92.20
22173;DHT22;11252;50.596;17.648;2022-08-02T03:47:47;17.50;92.20
22173;DHT22;11252;50.596;17.648;2022-08-02T03:50:16;17.50;92.20
22173;DHT22;11252;50.596;17.648;2022-08-02T03:52:45;17.50;92.20
22173;DHT22;11252;50.596;17.648;2022-08-02T03:55:16;17.50;92.20
22173;DHT22;11252;50.596;17.648;2022-08-02T03:57:44;17.50;92.20
22173;DHT22;11252;50.596;17.648;2022-08-02T04:00:17;17.60;92.20
22173;DHT22;11252;50.596;17.648;2022-08-02T04:02:46;17.60;92.20
22173;DHT22;11252;50.596;17.648;2022-08-02T04:05:16;17.60;92.20
22173;DHT22;11252;50.596;17.648;2022-08-02T04:07:44;17.70;92.20
22173;DHT22;11252;50.596;17.648;2022-08-02T04:10:32;17.80;92.20
22173;DHT22;11252;50.596;17.648;2022-08-02T04:13:20;17.90;92.20
22173;DHT22;11252;50.596;17.648;2022-08-02T04:15:49;18.00;92.20
22173;DHT22;11252;50.596;17.648;2022-08-02T04:18:23;18.00;92.20
22173;DHT22;11252;50.596;17.648;2022-08-02T04:20:52;18.10;92.20
22173;DHT22;11252;50.596;17.648;2022-08-02T04:23:22;18.20;92.20
22173;DHT22;11252;50.596;17.648;2022-08-02T04:25:53;18.20;92.20
22173;DHT22;11252;50.596;17.648;2022-08-02T04:28:23;18.20;92.20
22173;DHT22;11252;50.596;17.648;2022-08-02T04:30:55;18.30;92.20
22173;DHT22;11252;50.596;17.648;2022-08-02T04:33:24;18.30;92.20
22173;DHT22;11252;50.596;17.648;2022-08-02T04:35:52;18.30;92.20
22173;DHT22;11252;50.596;17.648;2022-08-02T04:38:25;18.40;92.20
22173;DHT22;11252;50.596;17.648;2022-08-02T04:40:54;18.50;92.20
22173;DHT22;11252;50.596;17.648;2022-08-02T04:43:23;18.50;92.20
22173;DHT22;11252;50.596;17.648;2022-08-02T04:45:52;18.50;92.20
22173;DHT22;11252;50.596;17.648;2022-08-02T04:48:21;18.60;92.20
22173;DHT22;11252;50.596;17.648;2022-08-02T04:50:51;18.60;92.20
22173;DHT22;11252;50.596;17.648;2022-08-02T04:53:19;18.70;92.20
22173;DHT22;11252;50.596;17.648;2022-08-02T04:55:47;18.80;92.20
22173;DHT22;11252;50.596;17.648;2022-08-02T04:58:15;18.80;92.20
22173;DHT22;11252;50.596;17.648;2022-08-02T05:01:03;18.80;92.20
22173;DHT22;11252;50.596;17.648;2022-08-02T05:03:31;18.80;92.20
22173;DHT22;11252;50.596;17.648;2022-08-02T05:05:59;18.90;92.20
22173;DHT22;11252;50.596;17.648;2022-08-02T05:08:27;18.90;92.20
22173;DHT22;11252;50.596;17.648;2022-08-02T05:10:56;18.90;92.20
22173;DHT22;11252;50.596;17.648;2022-08-02T05:13:23;18.90;92.20
22173;DHT22;11252;50.596;17.648;2022-08-02T05:15:53;18.90;92.20
22173;DHT22;11252;50.596;17.648;2022-08-02T05:18:21;18.80;92.20
22173;DHT22;11252;50.596;17.648;2022-08-02T05:20:49;18.80;92.20
22173;DHT22;11252;50.596;17.648;2022-08-02T05:23:24;18.80;92.20
22173;DHT22;11252;50.596;17.648;2022-08-02T05:25:52;18.80;92.20
22173;DHT22;11252;50.596;17.648;2022-08-02T05:28:20;18.80;92.20
22173;DHT22;11252;50.596;17.648;2022-08-02T05:30:48;18.90;92.20
22173;DHT22;11252;50.596;17.648;2022-08-02T05:33:16;19.10;92.20
22173;DHT22;11252;50.596;17.648;2022-08-02T05:35:44;19.30;92.20
22173;DHT22;11252;50.596;17.648;2022-08-02T05:38:13;19.50;92.20
22173;DHT22;11252;50.596;17.648;2022-08-02T05:40:40;19.70;92.20
22173;DHT22;11252;50.596;17.648;2022-08-02T05:43:21;19.90;92.20
22173;DHT22;11252;50.596;17.648;2022-08-02T05:45:50;20.20;92.20
22173;DHT22;11252;50.596;17.648;2022-08-02T05:48:19;20.40;92.20
22173;DHT22;11252;50.596;17.648;2022-08-02T05:50:54;20.50;92.20
22173;DHT22;11252;50.596;17.648;2022-08-02T05:56:23;20.70;92.20
22173;DHT22;11252;50.596;17.648;2022-08-02T05:59:03;20.80;92.20
22173;DHT22;11252;50.596;17.648;2022-08-02T06:01:38;20.90;92.20
22173;DHT22;11252;50.596;17.648;2022-08-02T06:04:10;21.10;92.20
22173;DHT22;11252;50.596;17.648;2022-08-02T06:06:43;21.20;92.20
22173;DHT22;11252;50.596;17.648;2022-08-02T06:09:16;21.40;92.20
22173;DHT22;11252;50.596;17.648;2022-08-02T06:11:52;21.70;92.20
22173;DHT22;11252;50.596;17.648;2022-08-02T06:14:32;21.90;92.20
22173;DHT22;11252;50.596;17.648;2022-08-02T06:17:04;22.00;92.20
22173;DHT22;11252;50.596;17.648;2022-08-02T06:19:32;22.20;92.20
22173;DHT22;11252;50.596;17.648;2022-08-02T06:22:18;22.40;92.20
22173;DHT22;11252;50.596;17.648;2022-08-02T06:25:06;22.40;92.20
22173;DHT22;11252;50.596;17.648;2022-08-02T06:27:54;22.60;92.20
22173;DHT22;11252;50.596;17.648;2022-08-02T06:30:24;22.80;92.20
22173;DHT22;11252;50.596;17.648;2022-08-02T06:32:53;22.80;92.20
22173;DHT22;11252;50.596;17.648;2022-08-02T06:35:21;22.90;92.20
22173;DHT22;11252;50.596;17.648;2022-08-02T06:38:00;23.00;92.20
22173;DHT22;11252;50.596;17.648;2022-08-02T06:40:38;23.30;92.20
22173;DHT22;11252;50.596;17.648;2022-08-02T06:45:39;23.70;90.80
22173;DHT22;11252;50.596;17.648;2022-08-02T06:48:08;23.80;89.90
22173;DHT22;11252;50.596;17.648;2022-08-02T06:50:38;23.90;89.50
22173;DHT22;11252;50.596;17.648;2022-08-02T06:53:14;24.20;89.50
22173;DHT22;11252;50.596;17.648;2022-08-02T06:55:43;24.20;89.30
22173;DHT22;11252;50.596;17.648;2022-08-02T06:58:12;24.40;89.20
22173;DHT22;11252;50.596;17.648;2022-08-02T07:00:41;24.60;88.70
22173;DHT22;11252;50.596;17.648;2022-08-02T07:03:19;24.70;87.80
22173;DHT22;11252;50.596;17.648;2022-08-02T07:05:47;24.80;88.00
22173;DHT22;11252;50.596;17.648;2022-08-02T07:08:16;24.90;87.70
22173;DHT22;11252;50.596;17.648;2022-08-02T07:10:45;24.90;86.80
22173;DHT22;11252;50.596;17.648;2022-08-02T07:13:13;25.10;86.90
22173;DHT22;11252;50.596;17.648;2022-08-02T07:15:42;25.20;86.40
22173;DHT22;11252;50.596;17.648;2022-08-02T07:18:15;25.40;86.20
22173;DHT22;11252;50.596;17.648;2022-08-02T07:20:43;25.70;85.30
22173;DHT22;11252;50.596;17.648;2022-08-02T07:23:11;25.70;84.10
22173;DHT22;11252;50.596;17.648;2022-08-02T07:25:39;25.70;84.60
22173;DHT22;11252;50.596;17.648;2022-08-02T07:28:27;25.60;84.50
22173;DHT22;11252;50.596;17.648;2022-08-02T07:30:55;25.50;85.10
22173;DHT22;11252;50.596;17.648;2022-08-02T07:33:23;25.40;85.40
22173;DHT22;11252;50.596;17.648;2022-08-02T07:36:07;25.60;84.40
22173;DHT22;11252;50.596;17.648;2022-08-02T07:38:42;25.60;84.40
22173;DHT22;11252;50.596;17.648;2022-08-02T07:41:11;25.70;83.90
22173;DHT22;11252;50.596;17.648;2022-08-02T07:43:39;25.90;83.70
22173;DHT22;11252;50.596;17.648;2022-08-02T07:46:07;26.10;83.10
22173;DHT22;11252;50.596;17.648;2022-08-02T07:48:34;26.40;82.80
22173;DHT22;11252;50.596;17.648;2022-08-02T07:51:02;26.70;81.70
22173;DHT22;11252;50.596;17.648;2022-08-02T07:53:29;26.80;80.80
22173;DHT22;11252;50.596;17.648;2022-08-02T07:56:17;26.90;81.00
22173;DHT22;11252;50.596;17.648;2022-08-02T07:58:49;27.10;80.80
22173;DHT22;11252;50.596;17.648;2022-08-02T08:01:16;27.50;79.80
22173;DHT22;11252;50.596;17.648;2022-08-02T08:03:45;27.70;79.10
22173;DHT22;11252;50.596;17.648;2022-08-02T08:06:13;27.90;79.00
22173;DHT22;11252;50.596;17.648;2022-08-02T08:08:42;28.00;77.60
22173;DHT22;11252;50.596;17.648;2022-08-02T08:11:09;28.10;77.90
22173;DHT22;11252;50.596;17.648;2022-08-02T08:13:37;28.00;77.10
22173;DHT22;11252;50.596;17.648;2022-08-02T08:16:07;27.80;77.00
22173;DHT22;11252;50.596;17.648;2022-08-02T08:18:35;27.80;76.80
22173;DHT22;11252;50.596;17.648;2022-08-02T08:21:08;28.10;77.30
22173;DHT22;11252;50.596;17.648;2022-08-02T08:23:36;28.20;76.20
22173;DHT22;11252;50.596;17.648;2022-08-02T08:26:04;28.40;76.10
22173;DHT22;11252;50.596;17.648;2022-08-02T08:28:32;28.60;76.00
22173;DHT22;11252;50.596;17.648;2022-08-02T08:31:01;28.80;76.10
22173;DHT22;11252;50.596;17.648;2022-08-02T08:33:29;28.80;76.00
22173;DHT22;11252;50.596;17.648;2022-08-02T08:35:57;28.50;75.30
22173;DHT22;11252;50.596;17.648;2022-08-02T08:38:28;28.00;73.70
22173;DHT22;11252;50.596;17.648;2022-08-02T08:40:55;27.80;76.60
22173;DHT22;11252;50.596;17.648;2022-08-02T08:43:23;28.20;73.90
22173;DHT22;11252;50.596;17.648;2022-08-02T08:45:51;28.60;73.00
22173;DHT22;11252;50.596;17.648;2022-08-02T08:48:23;28.90;73.20
22173;DHT22;11252;50.596;17.648;2022-08-02T08:51:06;29.00;73.20
22173;DHT22;11252;50.596;17.648;2022-08-02T08:53:52;28.90;72.20
22173;DHT22;11252;50.596;17.648;2022-08-02T08:56:21;28.40;73.30
22173;DHT22;11252;50.596;17.648;2022-08-02T08:58:50;28.40;74.00
22173;DHT22;11252;50.596;17.648;2022-08-02T09:01:18;28.40;72.90
22173;DHT22;11252;50.596;17.648;2022-08-02T09:03:47;28.50;73.00
22173;DHT22;11252;50.596;17.648;2022-08-02T09:06:15;28.40;73.10
22173;DHT22;11252;50.596;17.648;2022-08-02T09:08:44;28.40;73.90
22173;DHT22;11252;50.596;17.648;2022-08-02T09:11:16;28.70;73.30
22173;DHT22;11252;50.596;17.648;2022-08-02T09:14:00;29.00;72.50
22173;DHT22;11252;50.596;17.648;2022-08-02T09:18:59;28.00;72.90
22173;DHT22;11252;50.596;17.648;2022-08-02T09:21:35;27.70;73.60
22173;DHT22;11252;50.596;17.648;2022-08-02T09:24:20;28.00;74.90
22173;DHT22;11252;50.596;17.648;2022-08-02T09:26:49;28.60;74.40
22173;DHT22;11252;50.596;17.648;2022-08-02T09:29:21;28.90;72.20
22173;DHT22;11252;50.596;17.648;2022-08-02T09:31:50;28.70;71.70
22173;DHT22;11252;50.596;17.648;2022-08-02T09:34:18;28.40;73.80
22173;DHT22;11252;50.596;17.648;2022-08-02T09:36:46;28.30;72.40
22173;DHT22;11252;50.596;17.648;2022-08-02T09:39:20;28.60;72.20
22173;DHT22;11252;50.596;17.648;2022-08-02T09:42:06;28.90;71.10
22173;DHT22;11252;50.596;17.648;2022-08-02T09:44:37;29.50;70.20
22173;DHT22;11252;50.596;17.648;2022-08-02T09:47:13;29.90;70.30
22173;DHT22;11252;50.596;17.648;2022-08-02T09:49:46;29.60;68.40
22173;DHT22;11252;50.596;17.648;2022-08-02T09:52:25;29.20;69.40
22173;DHT22;11252;50.596;17.648;2022-08-02T09:55:10;28.70;70.20
22173;DHT22;11252;50.596;17.648;2022-08-02T09:57:38;28.90;71.10
22173;DHT22;11252;50.596;17.648;2022-08-02T10:00:07;29.40;70.70
22173;DHT22;11252;50.596;17.648;2022-08-02T10:03:10;29.50;69.40
22173;DHT22;11252;50.596;17.648;2022-08-02T10:05:54;29.90;69.40
22173;DHT22;11252;50.596;17.648;2022-08-02T10:08:45;30.50;68.80
22173;DHT22;11252;50.596;17.648;2022-08-02T10:11:13;30.40;67.90
22173;DHT22;11252;50.596;17.648;2022-08-02T10:13:43;29.90;67.70
22173;DHT22;11252;50.596;17.648;2022-08-02T10:16:15;29.30;68.50
22173;DHT22;11252;50.596;17.648;2022-08-02T10:18:44;28.90;69.20
22173;DHT22;11252;50.596;17.648;2022-08-02T10:21:36;29.00;70.10
22173;DHT22;11252;50.596;17.648;2022-08-02T10:24:16;29.30;67.50
22173;DHT22;11252;50.596;17.648;2022-08-02T10:27:11;29.70;67.80
22173;DHT22;11252;50.596;17.648;2022-08-02T10:29:46;30.10;67.70
22173;DHT22;11252;50.596;17.648;2022-08-02T10:32:56;30.40;65.80
22173;DHT22;11252;50.596;17.648;2022-08-02T10:35:26;30.60;66.40
22173;DHT22;11252;50.596;17.648;2022-08-02T10:37:59;30.90;65.90
22173;DHT22;11252;50.596;17.648;2022-08-02T10:40:55;31.00;65.20
22173;DHT22;11252;50.596;17.648;2022-08-02T10:46:29;31.70;63.60
22173;DHT22;11252;50.596;17.648;2022-08-02T10:52:03;31.00;64.70
22173;DHT22;11252;50.596;17.648;2022-08-02T10:55:10;30.40;64.90
22173;DHT22;11252;50.596;17.648;2022-08-02T10:58:14;30.00;65.00
22173;DHT22;11252;50.596;17.648;2022-08-02T11:00:38;29.70;64.70
22173;DHT22;11252;50.596;17.648;2022-08-02T11:06:12;29.40;66.10
22173;DHT22;11252;50.596;17.648;2022-08-02T11:12:02;30.60;65.30
22173;DHT22;11252;50.596;17.648;2022-08-02T11:14:42;30.60;64.10
22173;DHT22;11252;50.596;17.648;2022-08-02T11:17:20;30.20;63.90
22173;DHT22;11252;50.596;17.648;2022-08-02T11:20:14;30.40;62.60
22173;DHT22;11252;50.596;17.648;2022-08-02T11:22:44;30.80;64.10
22173;DHT22;11252;50.596;17.648;2022-08-02T11:28:15;31.40;60.40
22173;DHT22;11252;50.596;17.648;2022-08-02T11:30:56;31.90;60.00
22173;DHT22;11252;50.596;17.648;2022-08-02T11:33:35;32.10;59.70
22173;DHT22;11252;50.596;17.648;2022-08-02T11:36:05;32.20;60.30
22173;DHT22;11252;50.596;17.648;2022-08-02T11:38:33;32.60;59.50
22173;DHT22;11252;50.596;17.648;2022-08-02T11:41:02;32.90;58.30
22173;DHT22;11252;50.596;17.648;2022-08-02T11:43:36;32.80;58.80
22173;DHT22;11252;50.596;17.648;2022-08-02T11:46:12;32.90;58.20
22173;DHT22;11252;50.596;17.648;2022-08-02T11:48:41;32.70;59.60
22173;DHT22;11252;50.596;17.648;2022-08-02T11:51:15;32.40;58.50
22173;DHT22;11252;50.596;17.648;2022-08-02T11:56:15;32.40;59.20
22173;DHT22;11252;50.596;17.648;2022-08-02T11:59:07;32.40;58.40
22173;DHT22;11252;50.596;17.648;2022-08-02T12:01:38;32.40;59.20
22173;DHT22;11252;50.596;17.648;2022-08-02T12:04:15;32.50;59.40
22173;DHT22;11252;50.596;17.648;2022-08-02T12:06:52;32.50;58.30
22173;DHT22;11252;50.596;17.648;2022-08-02T12:09:22;32.30;58.20
22173;DHT22;11252;50.596;17.648;2022-08-02T12:11:50;32.40;58.90
22173;DHT22;11252;50.596;17.648;2022-08-02T12:14:18;32.30;59.20
22173;DHT22;11252;50.596;17.648;2022-08-02T12:16:47;32.00;59.00
22173;DHT22;11252;50.596;17.648;2022-08-02T12:19:34;31.60;59.70
22173;DHT22;11252;50.596;17.648;2022-08-02T12:22:23;31.00;61.20
22173;DHT22;11252;50.596;17.648;2022-08-02T12:24:55;30.40;62.10
22173;DHT22;11252;50.596;17.648;2022-08-02T12:27:37;30.20;62.30
22173;DHT22;11252;50.596;17.648;2022-08-02T12:30:16;30.10;61.70
22173;DHT22;11252;50.596;17.648;2022-08-02T12:33:07;30.10;61.90
22173;DHT22;11252;50.596;17.648;2022-08-02T12:35:39;30.00;62.50
22173;DHT22;11252;50.596;17.648;2022-08-02T12:38:11;30.00;63.00
22173;DHT22;11252;50.596;17.648;2022-08-02T12:40:39;29.90;62.80
22173;DHT22;11252;50.596;17.648;2022-08-02T12:43:14;29.80;62.50
22173;DHT22;11252;50.596;17.648;2022-08-02T12:45:54;29.80;63.30
22173;DHT22;11252;50.596;17.648;2022-08-02T12:48:33;30.00;63.20
22173;DHT22;11252;50.596;17.648;2022-08-02T12:51:28;30.10;62.20
22173;DHT22;11252;50.596;17.648;2022-08-02T12:54:27;30.00;62.50
22173;DHT22;11252;50.596;17.648;2022-08-02T12:57:12;29.90;62.50
22173;DHT22;11252;50.596;17.648;2022-08-02T12:59:41;29.80;62.50
22173;DHT22;11252;50.596;17.648;2022-08-02T13:02:11;29.70;63.00
22173;DHT22;11252;50.596;17.648;2022-08-02T13:04:41;29.60;61.90
22173;DHT22;11252;50.596;17.648;2022-08-02T13:07:17;29.40;62.80
22173;DHT22;11252;50.596;17.648;2022-08-02T13:09:45;29.20;64.10
22173;DHT22;11252;50.596;17.648;2022-08-02T13:12:14;29.20;63.80
22173;DHT22;11252;50.596;17.648;2022-08-02T13:14:43;29.30;62.70
22173;DHT22;11252;50.596;17.648;2022-08-02T13:17:11;29.30;62.60
22173;DHT22;11252;50.596;17.648;2022-08-02T13:19:39;29.30;63.80
22173;DHT22;11252;50.596;17.648;2022-08-02T13:22:09;29.20;63.40
22173;DHT22;11252;50.596;17.648;2022-08-02T13:24:37;29.20;63.50
22173;DHT22;11252;50.596;17.648;2022-08-02T13:27:23;29.40;63.80
22173;DHT22;11252;50.596;17.648;2022-08-02T13:29:53;29.30;63.00
22173;DHT22;11252;50.596;17.648;2022-08-02T13:32:22;29.30;63.00
22173;DHT22;11252;50.596;17.648;2022-08-02T13:34:50;29.10;62.70
22173;DHT22;11252;50.596;17.648;2022-08-02T13:37:18;29.00;63.50
22173;DHT22;11252;50.596;17.648;2022-08-02T13:39:46;29.00;63.60
22173;DHT22;11252;50.596;17.648;2022-08-02T13:42:34;29.00;62.80
22173;DHT22;11252;50.596;17.648;2022-08-02T13:45:01;28.90;63.10
22173;DHT22;11252;50.596;17.648;2022-08-02T13:47:41;28.80;63.00
22173;DHT22;11252;50.596;17.648;2022-08-02T13:50:30;28.60;65.00
22173;DHT22;11252;50.596;17.648;2022-08-02T13:52:58;28.40;64.70
22173;DHT22;11252;50.596;17.648;2022-08-02T13:55:28;28.40;64.90
22173;DHT22;11252;50.596;17.648;2022-08-02T13:57:57;28.60;62.50
22173;DHT22;11252;50.596;17.648;2022-08-02T14:00:25;28.60;64.30
22173;DHT22;11252;50.596;17.648;2022-08-02T14:03:05;28.50;63.90
22173;DHT22;11252;50.596;17.648;2022-08-02T14:05:38;28.50;63.40
22173;DHT22;11252;50.596;17.648;2022-08-02T14:08:18;28.30;63.80
22173;DHT22;11252;50.596;17.648;2022-08-02T14:10:47;28.10;64.00
22173;DHT22;11252;50.596;17.648;2022-08-02T14:13:16;28.00;65.10
22173;DHT22;11252;50.596;17.648;2022-08-02T14:15:46;28.00;65.20
22173;DHT22;11252;50.596;17.648;2022-08-02T14:18:14;28.00;65.10
22173;DHT22;11252;50.596;17.648;2022-08-02T14:20:42;28.20;63.90
22173;DHT22;11252;50.596;17.648;2022-08-02T14:23:11;28.30;63.20
22173;DHT22;11252;50.596;17.648;2022-08-02T14:25:39;28.40;63.10
22173;DHT22;11252;50.596;17.648;2022-08-02T14:28:07;28.50;62.60
22173;DHT22;11252;50.596;17.648;2022-08-02T14:30:37;28.50;63.40
22173;DHT22;11252;50.596;17.648;2022-08-02T14:33:05;28.40;63.50
22173;DHT22;11252;50.596;17.648;2022-08-02T14:35:33;28.40;63.70
22173;DHT22;11252;50.596;17.648;2022-08-02T14:38:01;28.30;64.00
22173;DHT22;11252;50.596;17.648;2022-08-02T14:40:29;28.30;64.10
22173;DHT22;11252;50.596;17.648;2022-08-02T14:43:00;28.40;64.30
22173;DHT22;11252;50.596;17.648;2022-08-02T14:45:29;28.40;64.20
22173;DHT22;11252;50.596;17.648;2022-08-02T14:48:09;28.20;63.50
22173;DHT22;11252;50.596;17.648;2022-08-02T14:50:38;28.10;63.10
22173;DHT22;11252;50.596;17.648;2022-08-02T14:53:05;28.00;63.60
22173;DHT22;11252;50.596;17.648;2022-08-02T14:55:42;27.70;63.80
22173;DHT22;11252;50.596;17.648;2022-08-02T14:58:10;27.50;65.10
22173;DHT22;11252;50.596;17.648;2022-08-02T15:00:39;27.40;65.50
22173;DHT22;11252;50.596;17.648;2022-08-02T15:03:10;27.30;65.60
22173;DHT22;11252;50.596;17.648;2022-08-02T15:05:38;27.40;65.30
22173;DHT22;11252;50.596;17.648;2022-08-02T15:08:06;27.50;65.70
22173;DHT22;11252;50.596;17.648;2022-08-02T15:10:34;27.60;65.10
22173;DHT22;11252;50.596;17.648;2022-08-02T15:13:02;27.70;64.90
22173;DHT22;11252;50.596;17.648;2022-08-02T15:15:38;27.70;64.90
22173;DHT22;11252;50.596;17.648;2022-08-02T15:18:09;27.60;64.70
22173;DHT22;11252;50.596;17.648;2022-08-02T15:20:37;27.60;65.00
22173;DHT22;11252;50.596;17.648;2022-08-02T15:23:08;27.50;63.90
22173;DHT22;11252;50.596;17.648;2022-08-02T15:25:38;27.50;64.50
22173;DHT22;11252;50.596;17.648;2022-08-02T15:28:08;27.40;65.10
22173;DHT22;11252;50.596;17.648;2022-08-02T15:30:38;27.50;65.30
22173;DHT22;11252;50.596;17.648;2022-08-02T15:33:06;27.60;64.50
22173;DHT22;11252;50.596;17.648;2022-08-02T15:35:35;27.70;64.60
22173;DHT22;11252;50.596;17.648;2022-08-02T15:38:03;27.70;63.90
22173;DHT22;11252;50.596;17.648;2022-08-02T15:40:31;27.70;64.30
22173;DHT22;11252;50.596;17.648;2022-08-02T15:42:59;27.60;64.60
22173;DHT22;11252;50.596;17.648;2022-08-02T15:45:27;27.50;65.10
22173;DHT22;11252;50.596;17.648;2022-08-02T15:47:59;27.40;64.60
22173;DHT22;11252;50.596;17.648;2022-08-02T15:50:29;27.40;65.00
22173;DHT22;11252;50.596;17.648;2022-08-02T15:52:56;27.40;64.60
22173;DHT22;11252;50.596;17.648;2022-08-02T15:55:24;27.30;64.10
22173;DHT22;11252;50.596;17.648;2022-08-02T15:57:52;27.30;63.50
22173;DHT22;11252;50.596;17.648;2022-08-02T16:00:20;27.30;64.10
22173;DHT22;11252;50.596;17.648;2022-08-02T16:02:49;27.30;64.90
22173;DHT22;11252;50.596;17.648;2022-08-02T16:05:16;27.20;65.40
22173;DHT22;11252;50.596;17.648;2022-08-02T16:07:46;27.00;65.80
22173;DHT22;11252;50.596;17.648;2022-08-02T16:10:15;26.90;65.40
22173;DHT22;11252;50.596;17.648;2022-08-02T16:12:44;26.80;66.30
22173;DHT22;11252;50.596;17.648;2022-08-02T16:15:13;26.80;66.60